In Rescue
 
Open Full Screen Window  High Contrast Mode
November 19, 2019 1:51 PM EST
Weather Information
Wind Direction
  ---
Wind Speed
  00 kt (0 mph)
Wind Gust
  00 kt (0 mph)
Altimeter
29.77 in
Visibility
10 SM
Temperature
02° C
36° F
Dewpoint
00° C
32° F
Humidity
87%
Sky Condition
Overcast @ 2,500 ft
Scattered @ 1,600 ft
Scattered @ 1,100 ft
MVFR

METAR KCAD 191851Z AUTO 00000KT 10SM SCT011 SCT016 OVC025 02/00 A2977 RMK AO2 T00200002

FAA Disclaimer: The data displayed is for advisory purposes only and is not to be used for flight planning or operations.